Time;durP1;ratioP1;P1;durP2;ratioP2;P2;SDS_P1;SDS_P2;PMS_P1;PMS_P2;Temp;Humidity;BMP_temperature;BMP_pressure;BME280_temperature;BME280_humidity;BME280_pressure;Samples;Min_cycle;Max_cycle;Signal;HPM_P1;HPM_P2
2022/02/09 00:00:14;;;;;;;4.00;2.85;;;;;;;6.95;79.56;98056.22;5033286;28;20065;-81
2022/02/09 00:03:00;;;;;;;4.03;2.10;;;;;;;6.95;79.37;98057.09;5035141;28;20045;-80
2022/02/09 00:05:42;;;;;;;3.05;2.60;;;;;;;6.96;79.06;98058.72;5037298;28;20145;-80
2022/02/09 00:08:11;;;;;;;3.30;3.00;;;;;;;6.95;79.44;98051.91;5037055;28;20495;-81
2022/02/09 00:10:42;;;;;;;2.78;2.47;;;;;;;6.95;79.16;98064.88;5037332;28;20368;-80
2022/02/09 00:13:46;;;;;;;2.50;2.30;;;;;;;6.96;79.32;98057.91;5043915;28;20104;-80
2022/02/09 00:16:31;;;;;;;2.28;2.05;;;;;;;6.95;79.26;98046.69;5043751;28;20423;-81
2022/02/09 00:19:04;;;;;;;2.63;2.40;;;;;;;6.96;79.46;98048.34;5041755;28;20053;-81
2022/02/09 00:21:53;;;;;;;2.72;2.33;;;;;;;6.95;79.36;98041.50;5037644;28;20057;-81
2022/02/09 00:24:57;;;;;;;3.47;2.40;;;;;;;6.96;78.83;98040.56;5037084;28;20107;-80
2022/02/09 00:28:00;;;;;;;;;;;;;;;6.98;79.22;98033.47;5036987;28;20046;-81
2022/02/09 00:39:05;;;;;;;2.40;1.70;;;;;;;6.94;78.53;98039.84;5036450;28;20053;-81
2022/02/09 00:41:53;;;;;;;2.72;1.95;;;;;;;6.93;78.10;98043.41;5036268;28;20052;-80
2022/02/09 00:44:47;;;;;;;3.42;2.05;;;;;;;6.92;78.21;98044.34;5036103;28;20450;-81
2022/02/09 01:32:59;;;;;;;5.88;2.15;;;;;;;6.89;79.29;98036.00;5015129;28;20092;-81
2022/02/09 01:38:07;;;;;;;4.38;2.75;;;;;;;6.91;79.12;98031.47;5017581;28;20062;-80
2022/02/09 01:41:19;;;;;;;3.72;2.80;;;;;;;6.90;79.15;98030.66;5029475;28;20084;-80
2022/02/09 01:57:25;;;;;;;3.95;1.80;;;;;;;6.91;78.41;98008.97;5034217;28;20495;-81
2022/02/09 01:59:52;;;;;;;3.15;2.40;;;;;;;6.89;78.37;98008.28;5034506;28;20041;-80
2022/02/09 02:02:23;;;;;;;3.63;2.22;;;;;;;6.91;78.53;98005.53;5034710;28;20046;-81
2022/02/09 02:04:51;;;;;;;2.83;2.40;;;;;;;6.89;78.29;97999.69;5034297;28;20052;-80
2022/02/09 02:07:29;;;;;;;6.85;3.85;;;;;;;6.85;77.60;98001.69;5034197;28;20072;-80
2022/02/09 02:10:03;;;;;;;4.13;3.33;;;;;;;6.80;77.92;97996.06;5034160;28;20053;-80
2022/02/09 02:12:34;;;;;;;3.60;2.42;;;;;;;6.76;77.54;97986.88;5034335;28;20049;-81
2022/02/09 02:15:25;;;;;;;3.75;2.70;;;;;;;6.71;77.38;97996.78;5034658;28;20147;-81
2022/02/09 02:17:52;;;;;;;3.05;2.70;;;;;;;6.66;77.44;97994.56;5034145;28;20053;-80
2022/02/09 02:20:33;;;;;;;4.07;2.78;;;;;;;6.64;77.39;97995.63;5033672;28;20068;-81
2022/02/09 02:23:25;;;;;;;2.30;2.10;;;;;;;6.62;77.38;97989.75;5034182;28;20055;-81
2022/02/09 02:26:07;;;;;;;5.77;2.20;;;;;;;6.56;77.01;97978.91;5033309;28;20053;-81
2022/02/09 02:28:45;;;;;;;2.92;2.63;;;;;;;6.52;77.22;97969.75;5034050;28;20287;-81
2022/02/09 02:37:10;;;;;;;4.20;2.65;;;;;;;6.45;77.94;97968.59;5033949;28;20046;-80
2022/02/09 02:40:13;;;;;;;2.47;2.13;;;;;;;6.46;77.54;97972.00;5033920;28;20049;-81
2022/02/09 02:57:03;;;;;;;3.22;2.58;;;;;;;6.32;77.88;97958.38;5033426;28;20049;-80
2022/02/09 02:59:41;;;;;;;4.33;2.77;;;;;;;6.31;77.38;97953.28;5033799;28;20053;-80
2022/02/09 03:10:54;;;;;;;4.90;2.70;;;;;;;6.24;77.71;97939.19;5027221;28;20427;-81
2022/02/09 03:13:26;;;;;;;3.30;2.22;;;;;;;6.25;78.19;97944.22;5033112;28;20503;-81
2022/02/09 03:15:59;;;;;;;4.05;3.00;;;;;;;6.28;78.45;97944.00;5033418;28;20056;-80
2022/02/09 03:18:48;;;;;;;;;;;;;;;6.34;78.50;97945.25;5033425;28;20058;-81
2022/02/09 03:21:30;;;;;;;2.22;2.03;;;;;;;6.33;77.83;97956.59;5033081;28;20302;-80
2022/02/09 03:24:03;;;;;;;2.22;2.03;;;;;;;6.35;77.70;97958.13;5033222;28;20479;-81
2022/02/09 03:26:54;;;;;;;3.85;2.45;;;;;;;6.37;77.48;97958.00;5033239;28;20054;-80
2022/02/09 03:48:55;;;;;;;2.10;1.90;;;;;;;6.29;77.23;97957.78;5037057;28;20115;-81
2022/02/09 03:54:22;;;;;;;2.60;1.80;;;;;;;6.19;76.92;97950.75;5031019;28;20049;-81
2022/02/09 03:56:58;;;;;;;2.25;2.05;;;;;;;6.16;76.86;97939.78;5036547;28;20057;-81
2022/02/09 03:59:29;;;;;;;3.33;2.30;;;;;;;6.12;77.32;97931.44;5036471;28;20064;-81
2022/02/09 04:01:58;;;;;;;3.17;2.42;;;;;;;6.10;76.90;97933.34;5036615;28;20056;-81
2022/02/09 04:04:26;;;;;;;3.03;2.13;;;;;;;6.06;77.25;97926.75;5036453;28;20144;-81
2022/02/09 04:06:54;;;;;;;2.42;2.22;;;;;;;6.07;77.52;97924.97;5036280;28;20042;-80
2022/02/09 04:09:26;;;;;;;3.38;2.47;;;;;;;6.08;77.50;97927.44;5036748;28;20049;-81
2022/02/09 04:12:02;;;;;;;2.40;2.03;;;;;;;6.06;77.21;97929.34;5036444;28;20136;-81
2022/02/09 04:14:38;;;;;;;3.35;2.95;;;;;;;6.05;77.34;97924.25;5036707;28;20069;-81
2022/02/09 04:17:25;;;;;;;2.75;2.00;;;;;;;6.05;77.46;97926.84;5036312;28;20055;-80
2022/02/09 04:20:14;;;;;;;3.42;2.47;;;;;;;6.06;77.37;97934.50;5036208;28;20047;-80
2022/02/09 04:36:00;;;;;;;3.35;2.50;;;;;;;6.07;77.31;97935.31;5036741;28;20053;-81
2022/02/09 04:37:05;;;;;;;3.35;2.53;;;;;;;5.99;77.47;97915.19;5036068;28;20049;-81
2022/02/09 04:39:44;;;;;;;3.22;2.55;;;;;;;6.00;77.73;97916.84;5037538;28;20042;-80
2022/02/09 04:42:34;;;;;;;3.20;2.70;;;;;;;6.02;77.65;97920.16;5036013;28;20053;-81
2022/02/09 04:48:00;;;;;;;5.53;2.90;;;;;;;6.06;77.22;97907.78;5022224;28;20100;-81
2022/02/09 04:50:33;;;;;;;4.18;2.40;;;;;;;6.08;77.55;97913.66;5035934;28;20132;-81
2022/02/09 04:53:17;;;;;;;6.20;3.65;;;;;;;6.10;77.08;97904.84;5039888;28;20435;-81
2022/02/09 04:55:56;;;;;;;3.45;2.97;;;;;;;6.09;77.34;97903.16;5038495;28;20049;-81
2022/02/09 04:58:36;;;;;;;5.93;2.85;;;;;;;6.14;78.21;97908.84;5038108;28;20052;-81
2022/02/09 05:01:12;;;;;;;5.05;2.92;;;;;;;6.18;77.75;97912.81;5035837;28;20117;-81
2022/02/09 05:04:04;;;;;;;5.53;3.45;;;;;;;6.16;77.05;97899.13;5036117;28;20053;-81
2022/02/09 05:18:00;;;;;;;6.05;3.17;;;;;;;6.08;77.25;97896.34;5035316;28;20045;-81
2022/02/09 05:26:06;;;;;;;5.43;3.38;;;;;;;6.18;77.67;97901.63;5035241;28;20049;-81
2022/02/09 05:28:34;;;;;;;5.47;4.10;;;;;;;6.18;76.56;97897.25;5035403;28;20045;-80
2022/02/09 05:31:03;;;;;;;6.10;3.22;;;;;;;6.12;76.36;97904.69;5035558;28;20053;-81
2022/02/09 05:33:31;;;;;;;5.65;3.20;;;;;;;6.05;76.68;97901.75;5035403;28;20069;-80
2022/02/09 05:35:59;;;;;;;5.93;3.45;;;;;;;6.01;76.58;97902.13;5034916;28;20049;-81
2022/02/09 05:38:28;;;;;;;4.47;3.58;;;;;;;5.97;76.56;97904.97;5034860;28;20056;-81
2022/02/09 05:40:56;;;;;;;5.38;3.50;;;;;;;5.96;76.84;97899.91;5034762;28;20091;-81
2022/02/09 05:43:26;;;;;;;5.43;4.20;;;;;;;5.95;76.90;97906.84;5035616;28;20081;-80
2022/02/09 05:51:29;;;;;;;28.77;15.52;;;;;;;5.85;76.71;97903.31;5035727;28;20053;-81
2022/02/09 05:54:19;;;;;;;21.05;11.57;;;;;;;5.84;76.73;97909.44;5036690;28;20053;-80
2022/02/09 05:56:49;;;;;;;11.00;5.53;;;;;;;5.88;76.79;97910.00;5035521;28;20132;-81
2022/02/09 05:59:28;;;;;;;7.55;5.22;;;;;;;5.90;77.25;97911.56;5034996;28;20045;-81
2022/02/09 06:01:56;;;;;;;7.32;4.47;;;;;;;5.95;76.81;97908.63;5034768;28;20140;-80
2022/02/09 06:04:24;;;;;;;7.07;4.78;;;;;;;6.00;77.05;97914.25;5035410;28;20053;-80
2022/02/09 06:06:51;;;;;;;6.35;3.55;;;;;;;6.05;77.18;97919.09;5035010;28;20053;-80
2022/02/09 06:09:21;;;;;;;7.30;4.50;;;;;;;6.10;76.55;97920.38;5034672;28;20067;-81
2022/02/09 06:11:53;;;;;;;7.32;5.65;;;;;;;6.16;76.74;97922.47;5035126;28;20061;-80
2022/02/09 06:14:42;;;;;;;5.38;4.60;;;;;;;6.22;77.20;97925.53;5035453;28;20053;-80
2022/02/09 06:19:58;;;;;;;8.63;5.78;;;;;;;6.26;75.85;97926.94;5017550;28;20079;-80
2022/02/09 06:22:26;;;;;;;11.23;7.22;;;;;;;6.25;75.64;97925.28;5034714;28;20042;-81
2022/02/09 06:24:55;;;;;;;9.88;6.25;;;;;;;6.26;75.68;97929.53;5034975;28;20449;-77
2022/02/09 06:27:23;;;;;;;7.05;4.95;;;;;;;6.30;75.34;97917.97;5032879;28;20057;-77
2022/02/09 06:29:52;;;;;;;7.47;4.78;;;;;;;6.32;75.34;97919.50;5032950;28;20585;-77
2022/02/09 06:32:20;;;;;;;8.05;4.90;;;;;;;6.35;74.83;97908.06;5033009;28;20045;-77
2022/02/09 06:34:49;;;;;;;9.05;5.15;;;;;;;6.36;74.93;97914.88;5033316;28;20045;-77
2022/02/09 06:37:21;;;;;;;8.40;5.03;;;;;;;6.38;75.33;97918.16;5032843;28;20056;-77
2022/02/09 06:39:55;;;;;;;5.90;4.05;;;;;;;6.39;74.77;97910.28;5033142;28;20072;-77
2022/02/09 06:42:25;;;;;;;7.82;4.70;;;;;;;6.40;74.55;97905.91;5032954;28;20050;-79
2022/02/09 06:44:57;;;;;;;6.45;4.80;;;;;;;6.44;75.98;97911.69;5033160;28;20045;-77
2022/02/09 06:47:27;;;;;;;8.30;5.68;;;;;;;6.47;76.35;97909.69;5033201;28;20396;-80
2022/02/09 06:49:59;;;;;;;10.32;6.82;;;;;;;6.50;75.40;97911.19;5032459;28;20538;-76
2022/02/09 06:52:27;;;;;;;7.47;5.60;;;;;;;6.53;76.01;97906.56;5032950;28;20061;-78
2022/02/09 06:55:09;;;;;;;10.98;5.53;;;;;;;6.58;76.45;97904.44;5027928;28;20294;-77
2022/02/09 06:57:59;;;;;;;12.80;6.72;;;;;;;6.60;75.90;97915.50;5044225;28;20053;-77
2022/02/09 07:00:29;;;;;;;12.52;5.72;;;;;;;6.63;75.17;97916.22;5046849;28;20045;-77
2022/02/09 07:02:57;;;;;;;8.68;5.63;;;;;;;6.63;74.70;97911.84;5032586;28;20049;-77
2022/02/09 07:05:24;;;;;;;8.70;5.13;;;;;;;6.66;75.05;97913.34;5042063;28;20418;-77
2022/02/09 07:07:52;;;;;;;6.72;5.22;;;;;;;6.69;76.33;97906.16;5052318;28;20056;-77
2022/02/09 07:10:19;;;;;;;9.38;5.00;;;;;;;6.71;75.39;97912.06;5052541;28;20056;-77
2022/02/09 07:12:48;;;;;;;7.97;4.65;;;;;;;6.71;75.38;97901.69;5045552;28;20494;-78
2022/02/09 07:15:25;;;;;;;10.30;5.13;;;;;;;6.72;74.16;97910.28;5032929;28;20662;-78
2022/02/09 07:17:53;;;;;;;9.38;5.35;;;;;;;6.71;74.11;97908.59;5032238;28;20058;-77
2022/02/09 07:20:24;;;;;;;7.40;4.13;;;;;;;6.69;73.68;97905.31;5032053;28;20546;-77
2022/02/09 07:22:55;;;;;;;5.38;3.10;;;;;;;6.66;73.81;97901.22;5032412;28;20057;-77
2022/02/09 07:25:30;;;;;;;6.07;3.17;;;;;;;6.67;73.75;97900.28;5032294;28;20053;-77
2022/02/09 07:28:02;;;;;;;12.82;7.70;;;;;;;6.64;72.50;97899.69;5032277;28;20431;-77
2022/02/09 07:30:30;;;;;;;17.97;10.27;;;;;;;6.60;72.89;97907.72;5032642;28;20053;-77
2022/02/09 07:33:00;;;;;;;17.73;12.05;;;;;;;6.57;73.29;97913.16;5032333;28;20136;-77
2022/02/09 07:35:28;;;;;;;14.35;9.98;;;;;;;6.57;73.13;97907.97;5032186;28;20053;-76
2022/02/09 07:37:55;;;;;;;18.73;10.77;;;;;;;6.60;73.00;97907.72;5037492;28;20045;-74
2022/02/09 07:40:23;;;;;;;14.63;8.55;;;;;;;6.63;73.04;97895.47;5039168;28;20050;-74
2022/02/09 07:42:54;;;;;;;31.75;13.13;;;;;;;6.61;72.75;97898.19;5038928;28;20073;-74
2022/02/09 07:45:43;;;;;;;20.70;10.82;;;;;;;6.58;72.65;97893.22;5037822;28;20060;-74
2022/02/09 07:48:26;;;;;;;11.02;6.22;;;;;;;6.55;72.68;97898.66;5038137;28;20333;-77
2022/02/09 07:51:27;;;;;;;12.70;5.38;;;;;;;6.55;73.54;97907.25;5017907;28;20053;-77
2022/02/09 07:54:00;;;;;;;12.18;7.38;;;;;;;6.63;75.12;97906.66;5013823;28;20057;-77
2022/02/09 07:56:29;;;;;;;14.32;4.32;;;;;;;6.66;73.54;97910.75;5014909;28;20058;-77
2022/02/09 07:58:58;;;;;;;9.50;4.85;;;;;;;6.66;73.26;97905.56;5015156;28;20077;-77
2022/02/09 08:01:27;;;;;;;8.25;4.18;;;;;;;6.66;73.00;97905.56;5014933;28;20052;-76
2022/02/09 08:03:55;;;;;;;8.23;5.18;;;;;;;6.66;73.08;97906.41;5014719;28;20058;-77
2022/02/09 08:06:24;;;;;;;7.90;4.05;;;;;;;6.72;73.92;97902.50;5014073;28;20054;-77
2022/02/09 08:08:54;;;;;;;8.98;4.43;;;;;;;6.80;74.02;97903.50;5016850;28;20050;-77
2022/02/09 08:11:26;;;;;;;9.45;4.18;;;;;;;6.93;74.71;97902.47;5016819;28;20042;-76
2022/02/09 08:28:18;;;;;;;6.13;3.72;;;;;;;7.65;73.16;97893.81;5015946;28;20046;-78
2022/02/09 08:31:01;;;;;;;4.43;3.17;;;;;;;7.79;72.96;97882.28;5015854;28;20054;-79
2022/02/09 08:33:30;;;;;;;4.43;2.83;;;;;;;7.94;73.55;97883.53;5016092;28;20049;-78
2022/02/09 08:35:57;;;;;;;4.22;2.45;;;;;;;8.07;71.71;97883.28;5015735;28;20058;-78
2022/02/09 08:38:29;;;;;;;4.13;2.65;;;;;;;8.25;73.31;97883.44;5016135;28;20050;-78
2022/02/09 08:40:56;;;;;;;4.75;2.80;;;;;;;8.44;71.24;97880.09;5015638;28;20054;-78
2022/02/09 08:43:24;;;;;;;3.53;2.42;;;;;;;8.58;70.68;97878.84;5015626;28;20057;-77
2022/02/09 08:45:52;;;;;;;4.30;2.33;;;;;;;8.75;68.81;97878.16;5015574;28;20073;-78
2022/02/09 08:48:20;;;;;;;5.03;2.50;;;;;;;8.99;70.08;97879.47;5014807;28;20054;-78
2022/02/09 08:50:50;;;;;;;3.92;2.00;;;;;;;9.22;69.87;97874.75;5017455;28;20050;-79
2022/02/09 08:53:19;;;;;;;3.45;2.20;;;;;;;9.44;69.42;97874.41;5017343;28;20046;-78
2022/02/09 08:55:48;;;;;;;6.50;2.30;;;;;;;9.64;66.35;97879.53;5017130;28;20065;-78
2022/02/09 08:58:19;;;;;;;6.25;2.42;;;;;;;9.83;66.43;97879.44;5017661;28;20057;-78
2022/02/09 09:00:48;;;;;;;4.05;1.98;;;;;;;10.03;68.01;97874.91;5043269;22;20390;-76
2022/02/09 09:03:19;;;;;;;3.70;1.85;;;;;;;10.24;66.06;97869.44;5056987;28;20049;-77
2022/02/09 09:05:50;;;;;;;2.97;1.90;;;;;;;10.43;64.62;97872.88;5056600;28;20056;-76
2022/02/09 09:08:35;;;;;;;5.00;3.17;;;;;;;10.58;66.13;97868.78;5057672;28;20052;-79
2022/02/09 09:11:22;;;;;;;8.15;3.72;;;;;;;10.78;63.52;97868.63;5057466;28;20053;-77
2022/02/09 09:31:02;;;;;;;3.35;2.17;;;;;;;11.89;60.43;97863.53;5059767;28;20056;-77
2022/02/09 09:59:13;;;;;;;3.55;2.13;;;;;;;14.35;56.86;97861.31;5057700;28;20049;-76
2022/02/09 10:01:48;;;;;;;5.20;2.15;;;;;;;14.60;51.68;97861.97;5058800;28;20064;-76
2022/02/09 10:35:26;;;;;;;4.40;2.33;;;;;;;20.64;41.16;97828.41;5056027;28;20142;-79
2022/02/09 10:37:57;;;;;;;4.07;2.80;;;;;;;21.74;38.33;97828.56;5059125;28;20052;-76
2022/02/09 10:40:36;;;;;;;2.65;1.90;;;;;;;22.77;36.67;97831.22;5059547;28;20060;-76
2022/02/09 10:43:05;;;;;;;5.20;1.83;;;;;;;23.86;35.22;97822.72;5058553;28;20045;-78
2022/02/09 10:45:37;;;;;;;3.90;2.05;;;;;;;24.70;33.98;97824.72;5057534;28;20055;-76
2022/02/09 10:48:29;;;;;;;3.30;2.08;;;;;;;25.55;30.60;97822.75;5057918;28;20059;-76
2022/02/09 10:51:16;;;;;;;1.75;1.63;;;;;;;26.47;26.72;97822.94;5037529;28;20060;-76
2022/02/09 10:54:05;;;;;;;7.35;2.55;;;;;;;27.01;27.13;97816.69;5037484;28;20061;-77
2022/02/09 10:56:34;;;;;;;2.35;1.90;;;;;;;27.67;28.33;97814.38;5052375;28;20048;-77
2022/02/09 10:59:04;;;;;;;2.92;2.00;;;;;;;28.32;26.99;97804.09;5057553;28;20453;-78
2022/02/09 11:01:33;;;;;;;2.28;1.70;;;;;;;28.80;26.91;97800.34;5057259;28;20423;-78
2022/02/09 11:04:02;;;;;;;3.58;1.80;;;;;;;29.30;23.72;97796.78;5057131;28;20454;-77
2022/02/09 11:06:33;;;;;;;2.85;1.52;;;;;;;29.71;25.28;97793.13;5056890;28;20053;-77
2022/02/09 11:09:03;;;;;;;3.50;1.88;;;;;;;30.24;25.47;97792.53;5058859;28;20049;-78
2022/02/09 11:11:31;;;;;;;3.47;1.60;;;;;;;30.74;22.90;97786.00;5058373;28;20478;-78
2022/02/09 11:13:59;;;;;;;4.10;1.65;;;;;;;30.95;23.78;97777.72;5061765;28;20047;-79
2022/02/09 11:16:28;;;;;;;3.78;1.38;;;;;;;29.20;25.65;97769.13;5055694;28;20534;-77
2022/02/09 11:18:57;;;;;;;3.20;1.50;;;;;;;27.13;28.89;97761.88;5054312;28;20060;-76
2022/02/09 11:21:32;;;;;;;2.42;1.52;;;;;;;25.67;28.03;97755.81;5052588;28;20060;-78
2022/02/09 11:24:07;;;;;;;3.47;1.02;;;;;;;24.78;29.23;97749.63;5054934;28;20041;-77
2022/02/09 11:26:42;;;;;;;1.77;1.40;;;;;;;24.16;33.05;97753.16;5053342;28;20048;-77
2022/02/09 11:29:37;;;;;;;2.88;1.40;;;;;;;23.72;33.82;97739.53;5053874;28;20049;-76
2022/02/09 11:32:22;;;;;;;1.73;0.90;;;;;;;23.47;30.59;97742.53;5055702;28;20442;-75
2022/02/09 11:35:24;;;;;;;1.20;0.90;;;;;;;23.31;33.61;97741.44;5058437;28;20045;-76
2022/02/09 11:38:09;;;;;;;2.63;1.33;;;;;;;23.32;32.02;97739.59;5058744;28;20049;-76
2022/02/09 11:40:43;;;;;;;3.80;1.42;;;;;;;23.15;31.75;97732.31;5061692;28;20053;-83
2022/02/09 11:43:37;;;;;;;2.60;1.20;;;;;;;22.60;34.98;97730.84;5070331;28;20051;-85
2022/02/09 11:52:22;;;;;;;1.50;0.85;;;;;;;22.68;35.95;97736.88;5034235;28;20049;-78
2022/02/09 12:00:54;;;;;;;3.88;1.42;;;;;;;25.58;29.31;97725.25;5051911;28;20048;-75
2022/02/09 12:10:26;;;;;;;3.30;1.00;;;;;;;26.80;26.98;97724.72;5061540;28;20061;-78
2022/02/09 12:13:07;;;;;;;1.23;0.90;;;;;;;26.95;25.88;97706.06;5062968;28;20049;-77
2022/02/09 12:18:31;;;;;;;2.10;1.15;;;;;;;27.02;26.83;97711.19;5060545;28;20286;-77
2022/02/09 12:21:03;;;;;;;2.22;1.15;;;;;;;26.43;26.22;97706.78;5063800;28;20053;-77
2022/02/09 12:23:32;;;;;;;;;;;;;;;25.73;29.72;97700.56;5065074;28;20045;-76
2022/02/09 12:26:07;;;;;;;3.60;1.58;;;;;;;24.57;32.38;97703.16;5064892;28;19927;-77
2022/02/09 12:28:38;;;;;;;1.92;0.90;;;;;;;23.62;30.21;97699.41;5062817;28;20057;-78
2022/02/09 12:31:07;;;;;;;1.70;0.90;;;;;;;22.84;34.51;97689.06;5063303;28;20052;-76
2022/02/09 12:33:35;;;;;;;3.58;1.20;;;;;;;22.29;33.12;97692.09;5061782;28;20132;-76
2022/02/09 12:36:12;;;;;;;3.70;1.13;;;;;;;21.78;33.39;97691.66;5061825;28;20063;-77
2022/02/09 12:38:41;;;;;;;2.15;0.90;;;;;;;21.36;36.10;97683.63;5062703;28;20131;-76
2022/02/09 12:41:13;;;;;;;1.48;0.85;;;;;;;20.97;38.86;97675.09;5065032;28;20068;-76
2022/02/09 12:43:46;;;;;;;;;;;;;;;20.78;38.30;97676.94;5063529;28;20048;-77
2022/02/09 12:46:14;;;;;;;1.30;1.00;;;;;;;20.32;35.91;97661.47;5062699;28;20333;-76
2022/02/09 12:48:42;;;;;;;2.13;0.75;;;;;;;19.90;39.42;97663.88;5061514;28;20053;-78
2022/02/09 12:51:25;;;;;;;1.80;0.75;;;;;;;19.58;41.04;97663.84;5060913;28;20079;-75
2022/02/09 12:53:59;;;;;;;2.15;0.85;;;;;;;19.33;41.91;97655.84;5059054;28;20076;-76
2022/02/09 12:56:29;;;;;;;1.45;1.00;;;;;;;19.13;43.50;97655.91;5058424;28;20049;-76
2022/02/09 12:58:59;;;;;;;3.83;0.95;;;;;;;18.93;40.19;97650.72;5059826;28;20063;-78
2022/02/09 13:01:27;;;;;;;2.05;0.73;;;;;;;18.72;39.55;97643.84;5061055;28;20053;-77
2022/02/09 13:03:55;;;;;;;2.70;1.00;;;;;;;18.62;43.41;97656.69;5061096;28;20084;-78
2022/02/09 13:06:22;;;;;;;2.97;1.10;;;;;;;18.51;43.04;97650.19;5063660;28;20118;-76
2022/02/09 13:08:53;;;;;;;1.55;0.75;;;;;;;18.40;44.02;97646.34;5061497;28;20049;-79
2022/02/09 13:11:27;;;;;;;1.35;0.50;;;;;;;18.27;44.30;97641.91;5063432;28;20517;-77
2022/02/09 13:14:03;;;;;;;1.92;0.75;;;;;;;18.18;45.26;97643.13;5062681;28;20057;-77
2022/02/09 13:16:45;;;;;;;5.15;1.45;;;;;;;18.09;45.24;97631.16;5062771;28;20396;-77
2022/02/09 13:19:38;;;;;;;1.70;0.68;;;;;;;17.99;42.02;97628.91;5062115;28;20549;-77
2022/02/09 14:13:50;;;;;;;1.10;0.60;;;;;;;16.72;47.58;97582.97;5038738;28;20052;-79
2022/02/09 14:16:55;;;;;;;1.45;0.60;;;;;;;16.68;45.90;97589.66;5059161;28;20060;-77
2022/02/09 14:23:44;;;;;;;2.38;0.60;;;;;;;16.64;47.19;97585.81;5058376;28;20061;-78
2022/02/09 14:52:56;;;;;;;1.48;0.70;;;;;;;15.94;47.69;97559.47;5021299;28;20052;-76
2022/02/09 14:55:42;;;;;;;1.05;0.50;;;;;;;15.89;49.34;97555.78;5057778;28;20045;-76
2022/02/09 14:58:12;;;;;;;0.88;0.47;;;;;;;15.78;45.68;97557.13;5057296;28;20084;-75
2022/02/09 15:00:53;;;;;;;0.65;0.60;;;;;;;15.70;48.81;97560.69;5057264;28;20041;-76
2022/02/09 15:03:39;;;;;;;0.82;0.50;;;;;;;15.67;46.22;97555.78;5055599;22;20099;-79
2022/02/09 15:09:12;;;;;;;2.58;0.65;;;;;;;15.54;45.15;97548.59;4971897;28;20050;-79
2022/02/09 15:11:53;;;;;;;;;;;;;;;15.51;45.17;97548.19;5022193;28;20046;-79
2022/02/09 15:14:27;;;;;;;1.25;0.80;;;;;;;15.40;45.13;97546.88;5033571;28;20379;-78
2022/02/09 15:17:05;;;;;;;0.95;0.40;;;;;;;15.31;45.69;97548.03;5033145;28;20061;-78
2022/02/09 15:20:05;;;;;;;1.55;0.75;;;;;;;15.28;46.37;97551.81;5033890;28;20049;-79
2022/02/09 15:22:34;;;;;;;1.13;0.60;;;;;;;15.25;45.94;97544.31;5032782;28;20050;-79
2022/02/09 15:25:09;;;;;;;1.88;0.80;;;;;;;15.22;49.00;97545.53;5033065;28;20053;-79
2022/02/09 15:27:40;;;;;;;0.70;0.47;;;;;;;15.19;47.06;97540.63;5033080;28;20050;-79
2022/02/09 15:30:08;;;;;;;3.17;0.70;;;;;;;15.12;46.38;97534.50;5033208;28;20056;-78
2022/02/09 15:32:39;;;;;;;1.60;0.93;;;;;;;15.07;50.44;97542.13;5034460;28;20060;-79
2022/02/09 15:35:14;;;;;;;0.43;0.32;;;;;;;15.05;49.67;97538.88;5037493;28;20148;-79
2022/02/09 15:37:47;;;;;;;0.90;0.60;;;;;;;15.01;50.40;97541.06;5036530;28;20053;-79
2022/02/09 15:40:26;;;;;;;3.42;0.80;;;;;;;14.99;52.18;97540.44;5037374;28;20053;-79
2022/02/09 15:43:09;;;;;;;1.83;0.77;;;;;;;14.93;48.06;97545.59;5036766;28;20057;-79
2022/02/09 15:56:50;;;;;;;1.02;0.60;;;;;;;14.66;48.00;97528.75;5036387;28;20050;-79
2022/02/09 15:59:35;;;;;;;2.58;0.70;;;;;;;14.57;47.69;97523.59;5036493;28;20057;-79
2022/02/09 16:10:50;;;;;;;8.32;2.00;;;;;;;14.20;48.51;97514.03;5036364;28;20049;-78
2022/02/09 16:21:57;;;;;;;5.03;2.58;;;;;;;13.77;52.39;97527.78;5035122;28;20049;-79
2022/02/09 16:24:32;;;;;;;4.72;2.92;;;;;;;13.72;52.97;97530.09;5035196;28;20077;-79
2022/02/09 16:38:23;;;;;;;7.13;3.90;;;;;;;12.96;51.53;97542.31;5035203;28;20053;-78
2022/02/09 16:46:52;;;;;;;6.47;3.88;;;;;;;12.47;51.63;97543.41;5012771;28;20510;-79
2022/02/09 16:49:31;;;;;;;7.05;4.05;;;;;;;12.33;51.80;97533.63;5037562;28;20123;-78
2022/02/09 16:52:03;;;;;;;8.60;4.35;;;;;;;12.19;51.80;97540.38;5055603;28;20583;-79
2022/02/09 16:54:40;;;;;;;7.43;4.18;;;;;;;12.08;52.12;97535.53;5055521;28;20044;-79
2022/02/09 17:19:12;;;;;;;4.68;3.17;;;;;;;10.64;54.37;97526.38;5054954;28;20049;-79
2022/02/09 17:21:40;;;;;;;5.13;3.08;;;;;;;10.58;54.35;97516.56;5054653;28;20056;-79
2022/02/09 17:24:08;;;;;;;8.80;3.78;;;;;;;10.52;53.94;97517.22;5054459;28;20079;-79
2022/02/09 17:26:35;;;;;;;5.03;3.00;;;;;;;10.47;53.99;97509.03;5053914;28;20056;-78
2022/02/09 17:29:04;;;;;;;4.25;3.28;;;;;;;10.43;53.90;97518.16;5054693;28;20423;-79
2022/02/09 17:31:42;;;;;;;8.60;3.85;;;;;;;10.41;53.83;97528.75;5055137;28;20491;-77
2022/02/09 17:34:43;;;;;;;9.80;4.22;;;;;;;10.37;53.79;97524.00;5054878;28;20064;-79
2022/02/09 17:37:33;;;;;;;6.63;3.45;;;;;;;10.28;53.58;97526.56;5053882;28;20059;-79
2022/02/09 17:53:51;;;;;;;6.15;4.07;;;;;;;9.31;55.18;97530.19;5034157;28;20049;-78
2022/02/09 17:56:22;;;;;;;7.65;5.15;;;;;;;9.22;55.38;97526.72;5032182;28;20045;-78
2022/02/09 17:58:52;;;;;;;6.35;4.35;;;;;;;9.17;55.54;97522.94;5033877;28;20056;-79
2022/02/09 18:01:21;;;;;;;7.32;4.80;;;;;;;9.12;55.79;97526.00;5033455;28;20050;-79
2022/02/09 18:03:52;;;;;;;7.38;4.55;;;;;;;9.05;55.59;97528.38;5033729;28;20063;-79
2022/02/09 18:06:23;;;;;;;8.20;4.78;;;;;;;8.96;55.64;97528.44;5041057;28;20046;-81
2022/02/09 18:08:59;;;;;;;6.82;4.20;;;;;;;8.88;56.00;97523.97;5046898;28;20057;-82
2022/02/09 18:11:46;;;;;;;7.93;4.65;;;;;;;8.77;56.01;97522.41;5048566;28;20045;-81
2022/02/09 18:14:47;;;;;;;7.72;5.45;;;;;;;8.69;56.28;97521.50;5045621;28;20052;-82
2022/02/09 18:29:26;;;;;;;12.32;5.25;;;;;;;8.34;57.28;97517.84;5001845;28;20053;-82
2022/02/09 18:32:55;;;;;;;6.53;4.88;;;;;;;8.21;57.86;97511.19;4989855;28;20421;-82
2022/02/09 18:38:20;;;;;;;8.93;6.05;;;;;;;8.03;57.54;97508.53;5041098;28;19921;-82
2022/02/09 18:43:39;;;;;;;8.80;5.20;;;;;;;7.84;58.40;97514.63;5048764;28;20041;-81
2022/02/09 18:46:15;;;;;;;8.30;5.03;;;;;;;7.81;58.53;97514.91;5055371;28;20060;-81
2022/02/09 18:56:51;;;;;;;14.15;5.72;;;;;;;7.78;58.49;97510.03;5071664;28;20036;-81
2022/02/09 19:03:01;;;;;;;;;;;;;;;7.72;59.22;97507.97;5050016;28;20079;-80
2022/02/09 19:05:33;;;;;;;8.82;5.38;;;;;;;7.72;58.50;97507.16;5075008;28;19908;-80
2022/02/09 19:08:18;;;;;;;11.13;6.53;;;;;;;7.71;58.84;97502.91;5071937;28;20092;-82
2022/02/09 19:30:42;;;;;;;9.20;5.98;;;;;;;7.38;59.48;97484.28;5146017;27;1216554;-80
2022/02/09 19:47:11;;;;;;;10.20;5.80;;;;;;;7.22;60.24;97488.28;5189802;27;20058;-80
2022/02/09 19:52:47;;;;;;;9.20;6.00;;;;;;;7.32;62.04;97477.84;5134566;27;20059;-80
2022/02/09 19:55:32;;;;;;;10.65;6.70;;;;;;;7.37;60.96;97480.06;5191522;27;20050;-79
2022/02/09 19:58:01;;;;;;;8.13;5.50;;;;;;;7.37;60.29;97486.06;5192206;27;20050;-80
2022/02/09 20:00:30;;;;;;;10.25;6.03;;;;;;;7.33;60.54;97484.69;5191427;27;20065;-78
2022/02/09 20:02:59;;;;;;;10.20;5.82;;;;;;;7.31;61.02;97484.03;5192138;27;20050;-80
2022/02/09 20:05:27;;;;;;;7.72;6.55;;;;;;;7.35;61.21;97487.16;5192625;27;20053;-80
2022/02/09 20:07:56;;;;;;;8.65;6.30;;;;;;;7.40;61.56;97483.19;5179908;27;20053;-80
2022/02/09 20:10:27;;;;;;;8.88;6.43;;;;;;;7.46;65.10;97483.59;5184095;27;20054;-80
2022/02/09 20:12:55;;;;;;;8.00;6.05;;;;;;;7.55;66.69;97487.94;5180891;27;20052;-80
2022/02/09 20:26:09;;;;;;;13.90;7.97;;;;;;;7.39;61.17;97488.50;5174976;27;20133;-81
2022/02/09 20:28:56;;;;;;;21.55;9.48;;;;;;;7.21;61.40;97491.00;5179531;27;20042;-81
2022/02/09 20:31:30;;;;;;;15.95;9.02;;;;;;;7.07;61.81;97492.25;5179969;27;20137;-81
2022/02/09 20:37:06;;;;;;;23.10;11.45;;;;;;;6.85;61.43;97485.56;5186731;27;20538;-81
2022/02/09 20:39:41;;;;;;;17.27;9.35;;;;;;;6.78;61.74;97484.47;5179664;27;20050;-81
2022/02/09 20:42:15;;;;;;;16.10;8.60;;;;;;;6.70;61.65;97482.56;5165814;27;20043;-80
2022/02/09 20:44:51;;;;;;;15.20;8.52;;;;;;;6.58;61.68;97479.28;5160328;27;20684;-80
2022/02/09 20:47:19;;;;;;;15.18;7.88;;;;;;;6.48;62.22;97477.63;5161646;27;20062;-81
2022/02/09 20:49:46;;;;;;;16.60;9.90;;;;;;;6.41;62.18;97479.94;5161007;27;20065;-80
2022/02/09 20:52:15;;;;;;;14.73;7.90;;;;;;;6.32;62.40;97468.59;5162258;27;20522;-80
2022/02/09 20:54:44;;;;;;;10.40;7.30;;;;;;;6.22;62.33;97472.94;5163142;27;20116;-79